FW1983 Weather Reports


Display with metric or nautical units.
time (UTC)temp
F
wind
direction
speed
MPH
gust
MPH
rain 1hr
in
rain 24hr
in
rain mn
in
humidity
%
barometer
mb
20260504023057 63 207 1.0 4.0 0.00 0.00 0.00 53 1004.7
20260504021556 63 210 1.0 4.0 0.00 0.00 0.00 53 1004.7
20260504020122 63 231 1.0 5.0 0.00 0.00 0.00 52 1004.7
20260504014600 64 222 1.0 6.0 0.00 0.00 0.00 51 1004.4
20260504013115 64 229 1.0 4.0 0.00 0.00 0.00 50 1004.3
20260504011555 65 215 2.0 7.0 0.00 0.00 0.00 49 1004.0
20260504010057 65 233 1.0 6.0 0.00 0.00 0.00 48 1004.1
20260504004554 66 218 1.0 3.0 0.00 0.00 0.00 47 1004.2
20260504003053 67 229 2.0 8.0 0.00 0.00 0.00 45 1004.1
20260504001554 67 242 3.0 11.0 0.00 0.00 0.00 44 1004.2
20260504000053 67 216 3.0 9.0 0.00 0.00 0.00 44 1004.1
20260503234552 67 190 4.0 9.0 0.00 0.00 0.00 44 1004.1
20260503233050 67 202 4.0 9.0 0.00 0.00 0.00 43 1004.2
20260503231549 67 197 2.0 8.0 0.00 0.00 0.00 43 1004.3
20260503230048 67 200 2.0 8.0 0.00 0.00 0.00 43 1004.4
20260503224550 67 235 3.0 9.0 0.00 0.00 0.00 42 1004.7
20260503223044 67 217 4.0 9.0 0.00 0.00 0.00 42 1004.9
20260503221556 66 163 4.0 11.0 0.00 0.00 0.00 42 1005.1
20260503220040 66 188 5.0 15.0 0.00 0.00 0.00 42 1005.3
20260503214541 66 198 4.0 11.0 0.00 0.00 0.00 42 1005.4
20260503213042 66 194 7.0 16.0 0.00 0.00 0.00 40 1005.6
20260503211534 66 205 4.0 13.0 0.00 0.00 0.00 41 1005.7
20260503210033 65 201 6.0 16.0 0.00 0.00 0.00 41 1006.0
20260503204531 65 178 6.0 13.0 0.00 0.00 0.00 40 1006.2
20260503203034 65 192 5.0 17.0 0.00 0.00 0.00 43 1006.7
20260503201524 64 186 8.0 17.0 0.00 0.00 0.00 43 1007.0
20260503200020 62 205 3.0 20.0 0.00 0.00 0.00 49 1007.2
20260503194517 61 187 5.0 10.0 0.00 0.00 0.00 51 1007.6
20260503193025 60 169 4.0 14.0 0.00 0.00 0.00 51 1007.7
20260503191527 59 181 4.0 14.0 0.00 0.00 0.00 51 1007.8
20260503190009 58 179 4.0 11.0 0.00 0.00 0.00 53 1008.1
20260503184503 57 168 2.0 10.0 0.00 0.00 0.00 57 1008.5
20260503183100 55 200 3.0 8.0 0.00 0.00 0.00 60 1008.7
20260503181557 55 182 3.0 10.0 0.00 0.00 0.00 60 1009.1
20260503180059 54 198 3.0 13.0 0.00 0.00 0.00 61 1009.9
20260503174554 54 178 3.0 13.0 0.00 0.00 0.00 62 1010.5
20260503173049 53 180 1.0 9.0 0.00 0.00 0.00 65 1010.8
20260503171549 52 194 2.0 11.0 0.00 0.00 0.00 67 1011.3
20260503081534 47 267 1.0 3.0 0.00 0.00 0.00 52 1013.6
20260503071519 47 245 1.0 2.0 0.00 0.00 0.00 51 1013.9
20260503054508 47 167 0.0 2.0 0.00 0.00 0.00 52 1014.7
20260503053006 47 161 0.0 2.0 0.00 0.00 0.00 52 1014.8
20260503051503 47 161 0.0 2.0 0.00 0.00 0.00 52 1015.0
20260503050002 47 161 0.0 2.0 0.00 0.00 0.00 52 1015.0
20260503044505 48 151 0.0 2.0 0.00 0.00 0.00 52 1015.1
20260503043101 48 151 0.0 2.0 0.00 0.00 0.00 52 1015.1
20260503041600 48 151 0.0 1.0 0.00 0.00 0.00 52 1015.2
20260503040059 48 151 0.0 1.0 0.00 0.00 0.00 52 1015.2
20260503034558 48 151 0.0 1.0 0.00 0.00 0.00 52 1015.2
20260503033104 48 151 0.0 2.0 0.00 0.00 0.00 52 1015.3
20260503031557 48 151 0.0 1.0 0.00 0.00 0.00 52 1015.3
20260503030057 48 151 0.0 1.0 0.00 0.00 0.00 52 1015.4
20260503024556 47 151 0.0 2.0 0.00 0.00 0.00 53 1015.4